createdAt,value
2019-03-25T00:01:56.255Z,7.79
2019-03-25T00:04:25.117Z,7.78
2019-03-25T00:06:53.957Z,7.81
2019-03-25T00:09:22.857Z,7.88
2019-03-25T00:11:51.756Z,7.82
2019-03-25T00:14:20.714Z,7.77
2019-03-25T00:16:49.637Z,7.76
2019-03-25T00:19:18.498Z,7.71
2019-03-25T00:21:47.340Z,7.77
2019-03-25T00:24:16.281Z,7.84
2019-03-25T00:26:45.216Z,7.80
2019-03-25T00:29:14.059Z,7.84
2019-03-25T00:31:42.975Z,7.73
2019-03-25T00:34:11.835Z,7.63
2019-03-25T00:36:40.695Z,7.59
2019-03-25T00:39:09.597Z,7.52
2019-03-25T00:41:38.443Z,7.40
2019-03-25T00:44:08.303Z,7.36
2019-03-25T00:46:37.298Z,7.18
2019-03-25T00:49:06.336Z,7.05
2019-03-25T00:51:35.185Z,6.93
2019-03-25T00:54:04.296Z,6.82
2019-03-25T00:56:33.146Z,6.79
2019-03-25T00:59:02.084Z,6.76
2019-03-25T01:01:31.076Z,6.76
2019-03-25T01:03:59.955Z,6.80
2019-03-25T01:06:28.804Z,6.78
2019-03-25T01:08:57.783Z,6.76
2019-03-25T01:11:26.616Z,6.77
2019-03-25T01:13:55.477Z,6.78
2019-03-25T01:16:24.376Z,6.69
2019-03-25T01:18:53.235Z,6.84
2019-03-25T01:21:22.105Z,6.97
2019-03-25T01:23:51.107Z,6.93
2019-03-25T01:26:20.036Z,6.89
2019-03-25T01:28:48.895Z,6.70
2019-03-25T01:31:17.796Z,6.71
2019-03-25T01:33:46.663Z,6.68
2019-03-25T01:36:15.542Z,6.70
2019-03-25T01:38:44.537Z,6.72
2019-03-25T01:41:13.386Z,6.67
2019-03-25T01:43:42.321Z,6.62
2019-03-25T01:46:11.296Z,6.61
2019-03-25T01:48:40.136Z,6.63
2019-03-25T01:51:08.977Z,6.56
2019-03-25T01:53:37.996Z,6.54
2019-03-25T01:56:06.855Z,6.56
2019-03-25T01:58:35.695Z,6.59
2019-03-25T02:01:04.706Z,6.58
2019-03-25T02:03:33.577Z,6.56
2019-03-25T02:06:02.437Z,6.56
2019-03-25T02:08:31.356Z,6.50
2019-03-25T02:11:00.235Z,6.62
2019-03-25T02:13:29.074Z,6.53
2019-03-25T02:15:57.996Z,6.47
2019-03-25T02:18:26.855Z,6.52
2019-03-25T02:20:55.924Z,6.68
2019-03-25T02:23:24.999Z,6.85
2019-03-25T02:25:54.095Z,6.97
2019-03-25T02:28:23.035Z,7.04
2019-03-25T02:30:52.016Z,7.15
2019-03-25T02:33:20.857Z,7.17
2019-03-25T02:35:49.727Z,6.91
2019-03-25T02:38:18.731Z,6.84
2019-03-25T02:40:47.658Z,6.92
2019-03-25T02:43:16.521Z,6.64
2019-03-25T02:45:45.525Z,6.45
2019-03-25T02:48:14.459Z,6.30
2019-03-25T02:50:43.315Z,6.12
2019-03-25T02:53:12.243Z,6.12
2019-03-25T02:55:42.396Z,6.05
2019-03-25T02:58:24.996Z,6.04
2019-03-25T03:00:53.772Z,5.96
2019-03-25T03:03:22.532Z,5.86
2019-03-25T03:05:51.315Z,6.09
2019-03-25T03:08:21.372Z,6.08
2019-03-25T03:10:50.131Z,6.25
2019-03-25T03:13:18.914Z,6.34
2019-03-25T03:15:47.693Z,6.39
2019-03-25T03:18:16.453Z,6.21
2019-03-25T03:20:45.254Z,6.06
2019-03-25T03:23:13.972Z,6.16
2019-03-25T03:25:56.366Z,6.14
2019-03-25T03:28:13.229Z,6.05
2019-03-25T03:30:42.030Z,5.87
2019-03-25T03:33:13.981Z,5.79
2019-03-25T03:35:46.240Z,5.78
2019-03-25T03:38:13.291Z,5.64
2019-03-25T03:40:42.051Z,5.64
2019-03-25T03:43:10.831Z,5.58
2019-03-25T03:45:39.611Z,5.59
2019-03-25T03:48:08.392Z,5.54
2019-03-25T03:50:37.260Z,5.12
2019-03-25T03:53:06.212Z,4.88
2019-03-25T03:55:36.943Z,4.78
2019-03-25T03:58:05.806Z,4.61
2019-03-25T04:00:35.578Z,4.61
2019-03-25T04:03:04.547Z,4.52
2019-03-25T04:05:33.331Z,4.46
2019-03-25T04:08:02.091Z,4.32
2019-03-25T04:10:30.901Z,4.30
2019-03-25T04:12:59.780Z,4.23
2019-03-25T04:15:30.510Z,4.21
2019-03-25T04:17:59.830Z,4.06
2019-03-25T04:20:28.594Z,4.18
2019-03-25T04:22:57.381Z,4.38
2019-03-25T04:25:26.156Z,4.59
2019-03-25T04:27:55.156Z,4.42
2019-03-25T04:30:23.900Z,4.51
2019-03-25T04:32:52.730Z,4.63
2019-03-25T04:35:21.562Z,4.54
2019-03-25T04:37:51.352Z,4.48
2019-03-25T04:40:20.114Z,4.37
2019-03-25T04:42:48.880Z,4.44
2019-03-25T04:45:17.696Z,4.27
2019-03-25T04:47:46.440Z,4.03
2019-03-25T04:50:15.340Z,4.09
2019-03-25T04:52:44.140Z,4.01
2019-03-25T04:55:13.020Z,4.09
2019-03-25T04:57:41.740Z,3.94
2019-03-25T05:00:10.792Z,3.86
2019-03-25T05:02:39.541Z,3.83
2019-03-25T05:05:09.592Z,3.87
2019-03-25T05:07:38.403Z,3.90
2019-03-25T05:10:08.096Z,4.00
2019-03-25T05:12:36.860Z,4.07
2019-03-25T05:15:07.112Z,3.77
2019-03-25T05:17:35.919Z,3.67
2019-03-25T05:20:05.372Z,3.61
2019-03-25T05:22:34.152Z,3.69
2019-03-25T05:25:03.020Z,3.63
2019-03-25T05:27:31.819Z,3.70
2019-03-25T05:30:00.614Z,3.73
2019-03-25T05:32:29.360Z,3.62
2019-03-25T05:34:58.179Z,3.64
2019-03-25T05:37:26.931Z,3.79
2019-03-25T05:39:55.753Z,3.89
2019-03-25T05:42:24.511Z,3.96
2019-03-25T05:44:53.272Z,4.04
2019-03-25T05:47:22.012Z,4.11
2019-03-25T05:49:50.832Z,4.10
2019-03-25T05:52:19.590Z,4.21
2019-03-25T05:54:48.334Z,4.25
2019-03-25T05:57:17.111Z,4.30
2019-03-25T05:59:45.890Z,4.29
2019-03-25T06:02:14.672Z,4.26
2019-03-25T06:04:43.434Z,4.31
2019-03-25T06:07:12.210Z,4.49
2019-03-25T06:09:40.970Z,4.63
2019-03-25T06:12:09.931Z,4.81
2019-03-25T06:14:38.695Z,4.91
2019-03-25T06:17:07.472Z,5.06
2019-03-25T06:19:36.290Z,5.03
2019-03-25T06:22:05.050Z,5.03
2019-03-25T06:24:33.850Z,5.05
2019-03-25T06:27:13.398Z,5.13
2019-03-25T06:29:33.152Z,5.28
2019-03-25T06:32:01.923Z,5.37
2019-03-25T06:34:30.691Z,5.44
2019-03-25T06:36:59.471Z,5.40
2019-03-25T06:39:28.254Z,5.51
2019-03-25T06:41:58.712Z,5.57
2019-03-25T06:44:27.492Z,5.55
2019-03-25T06:46:56.290Z,5.78
2019-03-25T06:49:25.060Z,5.69
2019-03-25T06:51:53.859Z,5.80
2019-03-25T06:54:22.640Z,5.78
2019-03-25T06:56:51.410Z,5.59
2019-03-25T06:59:20.170Z,5.61
2019-03-25T07:01:48.951Z,5.63
2019-03-25T07:04:17.730Z,5.62
2019-03-25T07:06:46.530Z,5.77
2019-03-25T07:09:15.340Z,5.88
2019-03-25T07:11:44.890Z,5.93
2019-03-25T07:14:13.770Z,6.05
2019-03-25T07:16:42.533Z,6.29
2019-03-25T07:19:11.340Z,6.30
2019-03-25T07:21:40.121Z,6.37
2019-03-25T07:24:08.940Z,6.52
2019-03-25T07:26:37.690Z,6.49
2019-03-25T07:29:06.451Z,6.57
2019-03-25T07:31:35.270Z,6.72
2019-03-25T07:34:04.015Z,6.86
2019-03-25T07:36:32.833Z,7.07
2019-03-25T07:39:01.571Z,7.22
2019-03-25T07:41:30.387Z,7.21
2019-03-25T07:43:59.151Z,7.45
2019-03-25T07:46:27.991Z,7.31
2019-03-25T07:48:58.251Z,7.57
2019-03-25T07:51:27.010Z,8.00
2019-03-25T07:53:55.802Z,8.11
2019-03-25T07:56:24.570Z,8.11
2019-03-25T07:58:53.361Z,8.03
2019-03-25T08:01:22.114Z,7.88
2019-03-25T08:03:50.902Z,7.87
2019-03-25T08:06:21.930Z,7.98
2019-03-25T08:08:50.769Z,8.16
2019-03-25T08:11:19.537Z,8.26
2019-03-25T08:13:48.381Z,8.24
2019-03-25T08:16:17.146Z,8.36
2019-03-25T08:18:45.970Z,8.52
2019-03-25T08:21:15.050Z,8.54
2019-03-25T08:23:46.073Z,8.62
2019-03-25T08:26:16.471Z,8.25
2019-03-25T08:28:45.397Z,8.46
2019-03-25T08:31:14.219Z,8.78
2019-03-25T08:33:42.951Z,8.64
2019-03-25T08:36:11.711Z,8.53
2019-03-25T08:38:40.590Z,8.70
2019-03-25T08:41:09.350Z,8.77
2019-03-25T08:43:38.132Z,8.84
2019-03-25T08:46:06.991Z,9.06
2019-03-25T08:48:35.784Z,8.98
2019-03-25T08:51:04.636Z,8.87
2019-03-25T08:53:33.450Z,8.86
2019-03-25T08:56:02.211Z,8.94
2019-03-25T08:58:31.000Z,9.01
2019-03-25T09:00:59.770Z,9.06
2019-03-25T09:03:28.530Z,8.87
2019-03-25T09:05:59.406Z,8.98
2019-03-25T09:08:27.791Z,9.10
2019-03-25T09:10:56.570Z,9.46
2019-03-25T09:13:25.331Z,9.86
2019-03-25T09:15:54.151Z,9.69
2019-03-25T09:18:22.890Z,10.13
2019-03-25T09:20:51.652Z,10.10
2019-03-25T09:23:20.431Z,9.52
2019-03-25T09:25:49.173Z,9.19
2019-03-25T09:28:24.148Z,9.04
2019-03-25T09:30:54.181Z,9.04
2019-03-25T09:33:23.252Z,8.83
2019-03-25T09:35:52.099Z,8.72
2019-03-25T09:38:21.200Z,8.64
2019-03-25T09:40:50.020Z,8.59
2019-03-25T09:43:18.889Z,8.71
2019-03-25T09:45:47.612Z,8.88
2019-03-25T09:48:16.371Z,8.77
2019-03-25T09:50:45.190Z,8.75
2019-03-25T09:53:13.972Z,8.80
2019-03-25T09:55:42.772Z,8.79
2019-03-25T09:58:11.534Z,8.59
2019-03-25T10:00:40.313Z,8.52
2019-03-25T10:03:09.451Z,8.83
2019-03-25T10:05:38.251Z,9.54
2019-03-25T10:08:07.053Z,10.35
2019-03-25T10:10:35.821Z,10.30
2019-03-25T10:13:04.590Z,10.46
2019-03-25T10:15:33.411Z,10.30
2019-03-25T10:18:02.219Z,10.32
2019-03-25T10:20:30.984Z,10.10
2019-03-25T10:22:59.732Z,10.00
2019-03-25T10:25:28.511Z,10.36
2019-03-25T10:27:57.310Z,10.60
2019-03-25T10:30:26.491Z,10.23
2019-03-25T10:32:55.252Z,10.08
2019-03-25T10:35:24.032Z,9.95
2019-03-25T10:37:52.790Z,9.95
2019-03-25T10:40:21.551Z,9.88
2019-03-25T10:42:50.318Z,9.75
2019-03-25T10:45:19.099Z,9.78
2019-03-25T10:47:47.852Z,9.68
2019-03-25T10:50:16.739Z,9.71
2019-03-25T10:52:45.471Z,9.59
2019-03-25T10:55:14.390Z,9.69
2019-03-25T10:57:43.243Z,9.79
2019-03-25T11:00:13.211Z,9.50
2019-03-25T11:02:41.992Z,9.25
2019-03-25T11:05:11.270Z,9.17
2019-03-25T11:07:40.224Z,9.25
2019-03-25T11:10:09.847Z,9.21
2019-03-25T11:12:38.654Z,8.98
2019-03-25T11:15:08.797Z,8.90
2019-03-25T11:17:37.650Z,8.88
2019-03-25T11:20:08.612Z,9.06
2019-03-25T11:22:37.430Z,9.08
2019-03-25T11:25:07.336Z,9.01
2019-03-25T11:27:36.091Z,8.29
2019-03-25T11:30:07.159Z,8.01
2019-03-25T11:32:35.911Z,8.59
2019-03-25T11:35:09.040Z,8.90
2019-03-25T11:37:37.810Z,9.45
2019-03-25T11:40:09.439Z,10.01
2019-03-25T11:42:38.195Z,10.03
2019-03-25T11:45:09.250Z,9.37
2019-03-25T11:47:38.015Z,8.75
2019-03-25T11:50:07.858Z,8.73
2019-03-25T11:52:36.631Z,9.80
2019-03-25T11:55:07.203Z,10.41
2019-03-25T11:57:36.050Z,10.38
2019-03-25T12:00:07.950Z,11.04
2019-03-25T12:02:36.833Z,11.81
2019-03-25T12:05:07.371Z,11.51
2019-03-25T12:07:36.194Z,10.49
2019-03-25T12:10:06.752Z,9.65
2019-03-25T12:12:35.523Z,9.51
2019-03-25T12:15:08.910Z,9.59
2019-03-25T12:17:37.890Z,9.82
2019-03-25T12:20:07.290Z,10.13
2019-03-25T12:22:36.032Z,10.76
2019-03-25T12:25:06.811Z,10.87
2019-03-25T12:27:35.571Z,11.29
2019-03-25T12:30:06.390Z,12.17
2019-03-25T12:32:35.950Z,12.08
2019-03-25T12:35:07.850Z,11.95
2019-03-25T12:37:36.609Z,10.92
2019-03-25T12:40:07.829Z,10.14
2019-03-25T12:42:36.892Z,10.03
2019-03-25T12:45:07.733Z,9.68
2019-03-25T12:47:36.530Z,9.41
2019-03-25T12:50:07.890Z,9.62
2019-03-25T12:52:36.678Z,9.49
2019-03-25T12:55:06.250Z,9.20
2019-03-25T12:57:35.031Z,8.16
2019-03-25T13:00:05.417Z,6.95
2019-03-25T13:02:34.179Z,6.19
2019-03-25T13:05:02.933Z,5.67
2019-03-25T13:07:31.690Z,5.40
2019-03-25T13:10:00.473Z,5.26
2019-03-25T13:12:29.232Z,5.21
2019-03-25T13:14:58.030Z,5.30
2019-03-25T13:17:26.770Z,5.45
2019-03-25T13:19:55.569Z,5.68
2019-03-25T13:22:24.410Z,5.93
2019-03-25T13:24:53.210Z,6.04
2019-03-25T13:27:21.950Z,6.01
2019-03-25T13:29:52.892Z,5.82
2019-03-25T13:32:21.335Z,5.72
2019-03-25T13:34:50.076Z,5.20
2019-03-25T13:37:18.859Z,4.66
2019-03-25T13:39:47.632Z,4.42
2019-03-25T13:42:16.391Z,4.08
2019-03-25T13:44:45.150Z,3.90
2019-03-25T13:47:13.952Z,3.81
2019-03-25T13:49:42.711Z,3.85
2019-03-25T13:52:11.533Z,3.72
2019-03-25T13:54:41.712Z,3.48
2019-03-25T13:57:10.490Z,3.47
2019-03-25T13:59:39.274Z,3.58
2019-03-25T14:02:08.030Z,4.00
2019-03-25T14:04:36.810Z,4.22
2019-03-25T14:07:05.679Z,4.39
2019-03-25T14:09:34.430Z,4.48
2019-03-25T14:12:03.192Z,4.79
2019-03-25T14:14:31.970Z,4.88
2019-03-25T14:17:02.191Z,4.73
2019-03-25T14:19:31.011Z,4.57
2019-03-25T14:21:59.891Z,4.66
2019-03-25T14:24:29.030Z,4.59
2019-03-25T14:26:57.832Z,4.65
2019-03-25T14:29:26.590Z,4.64
2019-03-25T14:31:56.170Z,4.87
2019-03-25T14:34:24.931Z,4.98
2019-03-25T14:36:53.730Z,5.03
2019-03-25T14:39:22.591Z,5.41
2019-03-25T14:41:51.513Z,5.86
2019-03-25T14:44:20.290Z,6.73
2019-03-25T14:46:49.053Z,6.63
2019-03-25T14:49:17.850Z,6.43
2019-03-25T14:51:47.671Z,6.40
2019-03-25T14:54:16.428Z,6.05
2019-03-25T14:56:45.212Z,5.81
2019-03-25T14:59:16.333Z,6.02
2019-03-25T15:01:45.673Z,6.16
2019-03-25T15:04:14.595Z,6.12
2019-03-25T15:06:43.346Z,6.13
2019-03-25T15:09:12.132Z,6.36
2019-03-25T15:11:40.962Z,6.57
2019-03-25T15:14:10.571Z,6.91
2019-03-25T15:16:41.810Z,6.81
2019-03-25T15:19:11.591Z,6.58
2019-03-25T15:21:40.450Z,6.43
2019-03-25T15:24:09.197Z,6.15
2019-03-25T15:26:37.992Z,6.05
2019-03-25T15:29:07.911Z,6.03
2019-03-25T15:31:36.670Z,5.93
2019-03-25T15:34:05.531Z,5.94
2019-03-25T15:36:34.353Z,5.97
2019-03-25T15:39:03.236Z,6.13
2019-03-25T15:41:31.959Z,6.21
2019-03-25T15:44:00.712Z,6.27
2019-03-25T15:46:29.452Z,6.07
2019-03-25T15:48:58.250Z,5.99
2019-03-25T15:51:27.078Z,5.59
2019-03-25T15:53:55.831Z,5.73
2019-03-25T15:56:24.631Z,5.87
2019-03-25T15:58:53.392Z,5.99
2019-03-25T16:01:22.312Z,6.06
2019-03-25T16:03:51.031Z,5.83
2019-03-25T16:06:22.244Z,5.63
2019-03-25T16:08:52.032Z,5.43
2019-03-25T16:11:20.930Z,5.14
2019-03-25T16:13:50.752Z,4.66
2019-03-25T16:16:19.510Z,4.60
2019-03-25T16:18:48.412Z,4.57
2019-03-25T16:21:17.174Z,4.62
2019-03-25T16:23:46.170Z,4.60
2019-03-25T16:26:14.932Z,4.67
2019-03-25T16:28:43.731Z,4.68
2019-03-25T16:31:14.292Z,4.68
2019-03-25T16:33:43.153Z,4.67
2019-03-25T16:36:11.952Z,4.68
2019-03-25T16:38:41.192Z,4.64
2019-03-25T16:41:11.691Z,4.58
2019-03-25T16:43:40.459Z,4.50
2019-03-25T16:46:09.252Z,4.48
2019-03-25T16:48:39.592Z,4.57
2019-03-25T16:51:08.530Z,4.72
2019-03-25T16:53:37.410Z,4.74
2019-03-25T16:56:06.251Z,4.58
2019-03-25T16:58:35.030Z,4.65
2019-03-25T17:01:09.862Z,4.44
2019-03-25T17:03:34.835Z,4.50
2019-03-25T17:06:03.601Z,4.43
2019-03-25T17:08:32.370Z,4.38
2019-03-25T17:11:02.778Z,4.39
2019-03-25T17:13:32.450Z,4.39
2019-03-25T17:16:01.551Z,4.39
2019-03-25T17:18:30.333Z,4.53
2019-03-25T17:21:00.610Z,4.49
2019-03-25T17:23:29.351Z,4.12
2019-03-25T17:25:58.153Z,3.90
2019-03-25T17:28:26.894Z,3.79
2019-03-25T17:30:55.791Z,3.63
2019-03-25T17:33:24.550Z,3.54
2019-03-25T17:35:54.250Z,3.56
2019-03-25T17:38:23.051Z,3.63
2019-03-25T17:40:51.812Z,3.67
2019-03-25T17:43:22.172Z,3.70
2019-03-25T17:45:50.951Z,3.63
2019-03-25T17:48:19.870Z,3.60
2019-03-25T17:50:48.687Z,3.60
2019-03-25T17:53:17.572Z,3.46
2019-03-25T17:55:46.351Z,3.29
2019-03-25T17:58:15.100Z,3.30
2019-03-25T18:00:46.774Z,3.05
2019-03-25T18:03:15.531Z,2.97
2019-03-25T18:05:44.457Z,2.89
2019-03-25T18:08:13.171Z,2.78
2019-03-25T18:10:42.032Z,2.82
2019-03-25T18:13:21.987Z,2.76
2019-03-25T18:15:42.753Z,2.72
2019-03-25T18:18:11.532Z,2.64
2019-03-25T18:20:40.372Z,2.70
2019-03-25T18:23:09.174Z,2.77
2019-03-25T18:25:38.050Z,2.79
2019-03-25T18:28:06.830Z,2.73
2019-03-25T18:30:35.886Z,2.68
2019-03-25T18:33:04.712Z,2.66
2019-03-25T18:35:33.449Z,2.58
2019-03-25T18:38:02.230Z,2.65
2019-03-25T18:40:31.010Z,2.60
2019-03-25T18:42:59.787Z,2.53
2019-03-25T18:45:30.170Z,2.46
2019-03-25T18:47:59.130Z,2.44
2019-03-25T18:50:28.047Z,2.41
2019-03-25T18:52:57.135Z,2.44
2019-03-25T18:55:25.958Z,2.52
2019-03-25T18:57:54.833Z,2.53
2019-03-25T19:00:36.378Z,2.60
2019-03-25T19:03:05.470Z,2.67
2019-03-25T19:05:34.393Z,2.78
2019-03-25T19:08:06.711Z,2.90
2019-03-25T19:10:35.550Z,2.90
2019-03-25T19:13:04.641Z,2.89
2019-03-25T19:15:33.650Z,2.94
2019-03-25T19:18:02.380Z,2.95
2019-03-25T19:20:31.252Z,2.91
2019-03-25T19:23:00.073Z,2.95
2019-03-25T19:25:30.123Z,2.96
2019-03-25T19:27:58.971Z,3.15
2019-03-25T19:30:27.810Z,3.25
2019-03-25T19:32:56.610Z,3.16
2019-03-25T19:35:25.406Z,3.26
2019-03-25T19:37:54.182Z,3.33
2019-03-25T19:40:23.110Z,3.11
2019-03-25T19:42:53.290Z,3.25
2019-03-25T19:45:22.192Z,3.23
2019-03-25T19:47:50.969Z,3.47
2019-03-25T19:50:20.930Z,3.79
2019-03-25T19:52:49.871Z,3.81
2019-03-25T19:55:18.715Z,3.72
2019-03-25T19:57:47.550Z,3.59
2019-03-25T20:00:18.152Z,3.62
2019-03-25T20:02:46.990Z,3.51
2019-03-25T20:05:15.946Z,3.45
2019-03-25T20:07:44.931Z,3.39
2019-03-25T20:10:34.395Z,3.37
2019-03-25T20:13:03.307Z,3.37
2019-03-25T20:15:44.997Z,3.28
2019-03-25T20:18:03.074Z,3.22
2019-03-25T20:20:31.931Z,3.02
2019-03-25T20:23:00.969Z,3.08
2019-03-25T20:25:29.891Z,3.03
2019-03-25T20:27:58.950Z,3.03
2019-03-25T20:30:27.788Z,2.98
2019-03-25T20:32:56.696Z,2.98
2019-03-25T20:35:25.593Z,3.01
2019-03-25T20:37:54.362Z,3.05
2019-03-25T20:40:23.258Z,3.08
2019-03-25T20:42:52.111Z,3.10
2019-03-25T20:45:20.998Z,3.18
2019-03-25T20:47:50.007Z,3.19
2019-03-25T20:50:19.101Z,3.24
2019-03-25T20:52:49.291Z,3.22
2019-03-25T20:55:18.120Z,3.22
2019-03-25T20:57:46.965Z,3.33
2019-03-25T21:00:16.410Z,3.32
2019-03-25T21:02:45.703Z,3.36
2019-03-25T21:05:14.853Z,3.34
2019-03-25T21:07:45.260Z,3.37
2019-03-25T21:10:14.302Z,3.41
2019-03-25T21:12:43.230Z,3.38
2019-03-25T21:15:12.222Z,3.36
2019-03-25T21:17:41.220Z,3.25
2019-03-25T21:20:10.482Z,3.29
2019-03-25T21:22:40.940Z,3.08
2019-03-25T21:25:09.842Z,3.18
2019-03-25T21:27:39.707Z,3.19
2019-03-25T21:30:10.931Z,3.18
2019-03-25T21:32:39.701Z,3.25
2019-03-25T21:35:08.787Z,3.29
2019-03-25T21:37:37.637Z,3.36
2019-03-25T21:40:07.839Z,3.26
2019-03-25T21:42:36.633Z,3.34
2019-03-25T21:45:08.351Z,3.32
2019-03-25T21:47:37.210Z,3.33
2019-03-25T21:50:06.908Z,3.36
2019-03-25T21:52:35.672Z,3.32
2019-03-25T21:55:05.961Z,3.26
2019-03-25T21:57:34.760Z,3.30
2019-03-25T22:00:09.818Z,3.25
2019-03-25T22:02:38.612Z,3.25
2019-03-25T22:05:09.020Z,3.24
2019-03-25T22:07:38.491Z,3.27
2019-03-25T22:10:07.773Z,3.26
2019-03-25T22:12:36.615Z,3.23
2019-03-25T22:15:09.764Z,3.13
2019-03-25T22:17:40.135Z,3.19
2019-03-25T22:20:11.249Z,3.14
2019-03-25T22:22:40.892Z,3.25
2019-03-25T22:25:09.894Z,3.28
2019-03-25T22:27:40.272Z,3.30
2019-03-25T22:30:09.411Z,3.28
2019-03-25T22:32:39.310Z,3.24
2019-03-25T22:35:09.552Z,3.29
2019-03-25T22:37:38.290Z,3.28
2019-03-25T22:40:10.352Z,3.25
2019-03-25T22:42:39.071Z,3.25
2019-03-25T22:45:08.582Z,3.24
2019-03-25T22:47:37.330Z,3.24
2019-03-25T22:50:08.630Z,3.16
2019-03-25T22:52:37.430Z,3.12
2019-03-25T22:55:08.871Z,3.14
2019-03-25T22:57:38.504Z,3.20
2019-03-25T23:00:08.476Z,3.20
2019-03-25T23:02:37.311Z,3.23
2019-03-25T23:05:06.990Z,3.11
2019-03-25T23:07:35.752Z,3.11
2019-03-25T23:10:05.031Z,3.16
2019-03-25T23:12:33.790Z,3.13
2019-03-25T23:15:02.553Z,3.07
2019-03-25T23:17:31.310Z,3.08
2019-03-25T23:20:00.771Z,3.09
2019-03-25T23:22:29.637Z,3.11
2019-03-25T23:25:00.671Z,3.12
2019-03-25T23:27:30.810Z,3.15
2019-03-25T23:30:01.310Z,3.14
2019-03-25T23:32:30.651Z,3.13
2019-03-25T23:35:00.892Z,3.11
2019-03-25T23:37:30.670Z,3.12
2019-03-25T23:40:00.911Z,3.07
2019-03-25T23:42:29.632Z,3.10
2019-03-25T23:44:58.413Z,3.07
2019-03-25T23:47:27.171Z,3.11
2019-03-25T23:49:55.910Z,3.08
2019-03-25T23:52:24.730Z,3.08
2019-03-25T23:54:53.470Z,3.09
2019-03-25T23:57:22.230Z,3.13
2019-03-25T23:59:51.010Z,3.10
